Time;durP1;ratioP1;P1;durP2;ratioP2;P2;SDS_P1;SDS_P2;PMS_P1;PMS_P2;Temp;Humidity;BMP_temperature;BMP_pressure;BME280_temperature;BME280_humidity;BME280_pressure;Samples;Min_cycle;Max_cycle;Signal;HPM_P1;HPM_P2
2022/05/31 00:00:26;;;;;;;0.30;0.30;;;;;;;;;;5019544;28;20088;-80
2022/05/31 00:02:53;;;;;;;0.20;0.10;;;;;;;;;;5019423;28;20042;-78
2022/05/31 00:05:20;;;;;;;1.17;1.08;;;;;;;;;;5019066;28;20025;-80
2022/05/31 00:07:48;;;;;;;0.35;0.35;;;;;;;;;;5019466;28;20031;-79
2022/05/31 00:10:17;;;;;;;0.50;0.45;;;;;;;;;;5019663;28;20026;-80
2022/05/31 00:12:45;;;;;;;0.25;0.25;;;;;;;;;;5018582;28;20026;-80
2022/05/31 00:15:13;;;;;;;0.20;0.20;;;;;;;;;;5018874;28;20041;-79
2022/05/31 00:17:40;;;;;;;0.20;0.20;;;;;;;;;;5035857;28;20344;-79
2022/05/31 00:20:06;;;;;;;0.88;0.60;;;;;;;;;;5019817;28;20037;-79
2022/05/31 00:22:33;;;;;;;0.30;0.30;;;;;;;;;;5021168;28;20100;-78
2022/05/31 00:24:59;;;;;;;0.63;0.63;;;;;;;;;;5020548;28;20439;-80
2022/05/31 00:27:28;;;;;;;0.73;0.73;;;;;;;;;;5014393;28;20022;-81
2022/05/31 00:29:57;;;;;;;0.45;0.45;;;;;;;;;;5018545;28;20034;-78
2022/05/31 00:32:28;;;;;;;0.93;0.70;;;;;;;;;;5018445;28;20163;-79
2022/05/31 00:34:54;;;;;;;1.35;0.40;;;;;;;;;;5018805;28;20044;-78
2022/05/31 00:37:20;;;;;;;0.40;0.40;;;;;;;;;;5059714;22;20103;-78
2022/05/31 00:39:46;;;;;;;0.90;0.63;;;;;;;;;;5011751;28;20468;-80
2022/05/31 00:42:17;;;;;;;0.47;0.47;;;;;;;;;;4979787;28;20042;-80
2022/05/31 00:44:42;;;;;;;0.73;0.73;;;;;;;;;;4975865;28;20042;-79
2022/05/31 00:47:30;;;;;;;1.35;1.25;;;;;;;;;;4976719;28;20022;-80
2022/05/31 00:50:07;;;;;;;0.60;0.45;;;;;;;;;;4975603;28;20054;-80
2022/05/31 00:52:39;;;;;;;1.65;0.55;;;;;;;;;;4978463;28;20046;-80
2022/05/31 00:55:07;;;;;;;;;;;;;;;;;;4976386;28;20130;-79
2022/05/31 00:57:34;;;;;;;0.65;0.65;;;;;;;;;;4976979;28;20235;-79
2022/05/31 01:00:05;;;;;;;0.30;0.30;;;;;;;;;;4976807;28;20077;-80
2022/05/31 01:02:30;;;;;;;0.30;0.30;;;;;;;;;;4971382;28;20030;-79
2022/05/31 01:04:58;;;;;;;0.35;0.35;;;;;;;;;;4977605;28;20467;-79
2022/05/31 01:07:27;;;;;;;1.35;1.25;;;;;;;;;;4974358;28;20116;-77
2022/05/31 01:09:55;;;;;;;0.75;0.47;;;;;;;;;;4960635;28;20031;-80
2022/05/31 01:12:21;;;;;;;0.75;0.40;;;;;;;;;;4976613;28;20035;-80
2022/05/31 01:14:47;;;;;;;0.57;0.57;;;;;;;;;;4981176;28;20052;-80
2022/05/31 01:17:18;;;;;;;0.40;0.40;;;;;;;;;;4976464;28;20027;-79
2022/05/31 01:19:58;;;;;;;1.35;1.25;;;;;;;;;;4978572;28;20679;-80
2022/05/31 01:22:51;;;;;;;0.28;0.20;;;;;;;;;;4977158;28;20495;-80
2022/05/31 01:25:22;;;;;;;0.30;0.30;;;;;;;;;;4976265;28;20432;-80
2022/05/31 01:28:26;;;;;;;0.20;0.20;;;;;;;;;;4976154;28;20019;-80
2022/05/31 01:30:57;;;;;;;0.98;0.50;;;;;;;;;;4960238;28;20026;-79
2022/05/31 01:33:30;;;;;;;0.40;0.30;;;;;;;;;;4977010;28;20114;-79
2022/05/31 01:36:01;;;;;;;0.63;0.63;;;;;;;;;;4975838;28;20085;-80
2022/05/31 01:38:55;;;;;;;0.30;0.30;;;;;;;;;;4975273;28;20061;-80
2022/05/31 01:41:43;;;;;;;0.82;0.70;;;;;;;;;;4969711;28;20058;-80
2022/05/31 01:44:13;;;;;;;0.05;0.05;;;;;;;;;;4976086;28;20034;-81
2022/05/31 01:46:42;;;;;;;2.80;0.38;;;;;;;;;;4960111;28;20026;-81
2022/05/31 01:49:12;;;;;;;2.05;0.73;;;;;;;;;;4959512;28;20015;-79
2022/05/31 01:51:43;;;;;;;2.10;0.88;;;;;;;;;;4956733;28;20047;-81
2022/05/31 01:54:16;;;;;;;0.75;0.52;;;;;;;;;;4978362;28;20409;-81
2022/05/31 01:56:46;;;;;;;0.80;0.45;;;;;;;;;;4975206;28;20039;-80
2022/05/31 01:59:12;;;;;;;0.25;0.25;;;;;;;;;;4952798;28;20549;-80
2022/05/31 02:01:38;;;;;;;1.05;0.95;;;;;;;;;;4985549;28;20133;-81
2022/05/31 02:04:04;;;;;;;1.85;0.65;;;;;;;;;;4975866;28;20066;-81
2022/05/31 02:06:38;;;;;;;0.40;0.40;;;;;;;;;;4954897;28;20043;-81
2022/05/31 02:09:07;;;;;;;0.45;0.45;;;;;;;;;;4958752;28;20317;-82
2022/05/31 02:11:33;;;;;;;0.68;0.47;;;;;;;;;;4991684;28;20058;-80
2022/05/31 02:14:01;;;;;;;0.43;0.43;;;;;;;;;;4991972;28;20062;-82
2022/05/31 02:16:31;;;;;;;0.15;0.15;;;;;;;;;;4963510;28;20109;-80
2022/05/31 02:19:17;;;;;;;0.63;0.63;;;;;;;;;;4991540;28;20460;-82
2022/05/31 02:21:43;;;;;;;2.85;0.80;;;;;;;;;;4975524;28;20066;-80
2022/05/31 02:24:11;;;;;;;0.38;0.38;;;;;;;;;;4955890;28;20058;-80
2022/05/31 02:26:37;;;;;;;2.17;0.57;;;;;;;;;;4958985;28;20023;-81
2022/05/31 02:29:03;;;;;;;2.90;0.73;;;;;;;;;;4963863;28;20026;-81
2022/05/31 02:31:29;;;;;;;1.50;1.10;;;;;;;;;;4959559;28;20523;-81
2022/05/31 02:33:55;;;;;;;0.75;0.63;;;;;;;;;;4991469;28;20027;-81
2022/05/31 02:36:22;;;;;;;0.50;0.50;;;;;;;;;;4991099;28;20022;-81
2022/05/31 02:38:55;;;;;;;2.17;1.27;;;;;;;;;;4959233;28;20106;-81
2022/05/31 02:41:20;;;;;;;;;;;;;;;;;;4959306;28;20101;-81
2022/05/31 02:43:49;;;;;;;0.38;0.30;;;;;;;;;;4975437;28;19914;-81
2022/05/31 02:46:27;;;;;;;0.10;0.10;;;;;;;;;;4974359;28;20444;-81
2022/05/31 02:49:07;;;;;;;;;;;;;;;;;;;;;
2022/05/31 02:51:46;;;;;;;0.73;0.60;;;;;;;;;;4979086;28;20037;-82
2022/05/31 02:54:13;;;;;;;0.10;0.10;;;;;;;;;;4959127;28;20037;-81
2022/05/31 02:56:46;;;;;;;0.50;0.50;;;;;;;;;;4974849;28;20106;-81
2022/05/31 02:59:14;;;;;;;0.10;0.10;;;;;;;;;;4956150;28;20452;-81
2022/05/31 03:01:40;;;;;;;1.08;0.30;;;;;;;;;;4956508;28;20041;-81
2022/05/31 03:04:10;;;;;;;0.85;0.85;;;;;;;;;;4959903;28;20026;-82
2022/05/31 03:06:37;;;;;;;1.05;0.63;;;;;;;;;;4970825;28;20027;-81
2022/05/31 03:09:08;;;;;;;0.52;0.50;;;;;;;;;;4956129;28;20038;-80
2022/05/31 03:11:39;;;;;;;0.70;0.55;;;;;;;;;;4959200;28;20038;-82
2022/05/31 03:14:22;;;;;;;0.43;0.43;;;;;;;;;;4974585;28;20383;-81
2022/05/31 03:16:59;;;;;;;1.77;1.05;;;;;;;;;;4990055;28;20034;-82
2022/05/31 03:19:28;;;;;;;0.77;0.77;;;;;;;;;;4957987;28;20022;-81
2022/05/31 03:21:58;;;;;;;0.20;0.20;;;;;;;;;;4958384;28;20050;-82
2022/05/31 03:24:29;;;;;;;3.22;1.35;;;;;;;;;;4990495;28;20023;-82
2022/05/31 03:26:59;;;;;;;2.38;0.63;;;;;;;;;;4956283;28;20077;-81
2022/05/31 03:29:26;;;;;;;0.82;0.40;;;;;;;;;;4952534;28;20034;-82
2022/05/31 03:31:54;;;;;;;1.20;1.10;;;;;;;;;;4958757;28;20027;-81
2022/05/31 03:34:22;;;;;;;1.25;0.75;;;;;;;;;;4958754;28;20432;-81
2022/05/31 03:36:49;;;;;;;1.20;0.82;;;;;;;;;;4974147;28;20038;-81
2022/05/31 03:39:15;;;;;;;3.03;0.52;;;;;;;;;;4959258;28;20030;-81
2022/05/31 03:41:40;;;;;;;1.25;0.63;;;;;;;;;;4955465;28;20164;-81
2022/05/31 03:44:06;;;;;;;0.35;0.35;;;;;;;;;;4955130;28;20114;-81
2022/05/31 03:46:34;;;;;;;0.35;0.35;;;;;;;;;;4958529;28;20086;-82
2022/05/31 03:49:01;;;;;;;0.30;0.30;;;;;;;;;;4989949;28;20113;-80
2022/05/31 03:51:26;;;;;;;0.77;0.38;;;;;;;;;;4958168;28;20024;-81
2022/05/31 03:53:52;;;;;;;2.88;0.75;;;;;;;;;;4958324;28;20038;-81
2022/05/31 03:56:17;;;;;;;0.40;0.40;;;;;;;;;;4990490;28;20034;-81
2022/05/31 03:58:43;;;;;;;0.68;0.68;;;;;;;;;;4973049;28;20031;-81
2022/05/31 04:01:08;;;;;;;0.98;0.93;;;;;;;;;;4957248;28;20023;-81
2022/05/31 04:03:33;;;;;;;0.60;0.60;;;;;;;;;;4974418;28;20174;-80
2022/05/31 04:06:01;;;;;;;0.10;0.10;;;;;;;;;;4958587;28;20014;-81
2022/05/31 04:08:29;;;;;;;0.30;0.30;;;;;;;;;;4957773;28;20086;-82
2022/05/31 04:10:55;;;;;;;1.25;0.90;;;;;;;;;;4958143;28;20026;-81
2022/05/31 04:13:20;;;;;;;0.60;0.60;;;;;;;;;;4990445;28;20033;-81
2022/05/31 04:15:48;;;;;;;0.13;0.13;;;;;;;;;;4975285;28;20038;-81
2022/05/31 04:18:13;;;;;;;7.15;0.93;;;;;;;;;;4954639;28;20023;-81
2022/05/31 04:20:41;;;;;;;0.20;0.20;;;;;;;;;;4992006;28;20030;-80
2022/05/31 04:26:06;;;;;;;1.25;0.82;;;;;;;;;;4971912;28;20047;-81
2022/05/31 04:28:31;;;;;;;0.93;0.75;;;;;;;;;;4968744;28;20033;-80
2022/05/31 04:30:57;;;;;;;0.50;0.43;;;;;;;;;;4958992;28;20035;-82
2022/05/31 04:33:24;;;;;;;0.63;0.63;;;;;;;;;;4963314;28;20341;-82
2022/05/31 04:36:00;;;;;;;1.42;0.38;;;;;;;;;;4961578;28;20018;-82
2022/05/31 04:38:26;;;;;;;2.25;1.35;;;;;;;;;;4988638;28;20019;-79
2022/05/31 04:40:54;;;;;;;0.73;0.73;;;;;;;;;;4980482;28;20603;-81
2022/05/31 04:43:21;;;;;;;0.32;0.32;;;;;;;;;;4960029;28;20511;-81
2022/05/31 04:45:52;;;;;;;0.28;0.28;;;;;;;;;;4961541;28;20038;-81
2022/05/31 04:48:22;;;;;;;0.75;0.60;;;;;;;;;;4992967;28;20030;-81
2022/05/31 04:50:47;;;;;;;0.13;0.13;;;;;;;;;;4983141;28;20030;-81
2022/05/31 04:53:15;;;;;;;0.20;0.20;;;;;;;;;;4960115;28;20035;-81
2022/05/31 04:55:41;;;;;;;0.55;0.55;;;;;;;;;;4960715;28;20626;-82
2022/05/31 04:58:08;;;;;;;0.60;0.60;;;;;;;;;;4960253;28;20143;-82
2022/05/31 05:00:36;;;;;;;7.53;1.02;;;;;;;;;;4960745;28;20093;-81
2022/05/31 05:03:03;;;;;;;0.70;0.45;;;;;;;;;;4970151;28;20066;-81
2022/05/31 05:05:31;;;;;;;0.38;0.38;;;;;;;;;;4960670;28;20035;-81
2022/05/31 05:07:59;;;;;;;0.20;0.20;;;;;;;;;;4992936;28;20034;-82
2022/05/31 05:10:27;;;;;;;0.43;0.43;;;;;;;;;;4976765;28;20035;-80
2022/05/31 05:12:55;;;;;;;0.40;0.40;;;;;;;;;;4959865;28;20039;-82
2022/05/31 05:15:22;;;;;;;0.20;0.20;;;;;;;;;;4962111;28;20035;-81
2022/05/31 05:17:55;;;;;;;0.50;0.45;;;;;;;;;;4964038;28;20050;-82
2022/05/31 05:20:25;;;;;;;1.60;1.00;;;;;;;;;;4976927;28;20549;-81
2022/05/31 05:22:53;;;;;;;1.10;1.00;;;;;;;;;;4956757;28;20054;-82
2022/05/31 05:25:18;;;;;;;0.90;0.85;;;;;;;;;;4963865;28;20033;-82
2022/05/31 05:27:44;;;;;;;1.27;0.73;;;;;;;;;;4945481;28;20105;-82
2022/05/31 05:32:56;;;;;;;2.47;1.75;;;;;;;;;;4982691;28;20045;-83
2022/05/31 05:35:21;;;;;;;0.80;0.80;;;;;;;;;;4957514;28;20503;-81
2022/05/31 05:37:47;;;;;;;1.13;0.90;;;;;;;;;;4960649;28;20026;-81
2022/05/31 05:40:14;;;;;;;0.10;0.10;;;;;;;;;;4960576;28;20106;-82
2022/05/31 05:42:41;;;;;;;0.30;0.30;;;;;;;;;;4962675;28;20142;-83
2022/05/31 05:45:08;;;;;;;1.42;0.85;;;;;;;;;;4960418;28;20026;-81
2022/05/31 05:47:36;;;;;;;0.60;0.60;;;;;;;;;;4992502;28;20037;-82
2022/05/31 05:50:05;;;;;;;0.28;0.28;;;;;;;;;;4992479;28;20085;-82
2022/05/31 05:52:33;;;;;;;1.13;0.85;;;;;;;;;;4991333;28;20034;-81
2022/05/31 05:55:01;;;;;;;1.20;0.55;;;;;;;;;;4995081;28;20042;-82
2022/05/31 05:57:27;;;;;;;0.45;0.45;;;;;;;;;;4960404;28;20022;-81
2022/05/31 05:59:52;;;;;;;0.40;0.40;;;;;;;;;;4959220;28;20038;-82
2022/05/31 06:02:32;;;;;;;1.25;0.88;;;;;;;;;;4958871;28;20023;-83
2022/05/31 06:05:08;;;;;;;0.60;0.60;;;;;;;;;;4985483;28;20070;-83
2022/05/31 06:07:39;;;;;;;5.55;1.05;;;;;;;;;;4964354;28;20092;-82
2022/05/31 06:10:09;;;;;;;0.15;0.15;;;;;;;;;;4959645;28;20027;-83
2022/05/31 06:12:39;;;;;;;0.93;0.70;;;;;;;;;;4958814;28;20023;-82
2022/05/31 06:15:12;;;;;;;0.35;0.35;;;;;;;;;;4958954;28;20444;-81
2022/05/31 06:17:40;;;;;;;0.50;0.32;;;;;;;;;;4977016;28;20048;-82
2022/05/31 06:20:07;;;;;;;0.40;0.40;;;;;;;;;;4972544;28;20030;-82
2022/05/31 06:22:37;;;;;;;2.85;1.60;;;;;;;;;;4958255;28;20061;-82
2022/05/31 06:25:03;;;;;;;1.15;1.05;;;;;;;;;;4976352;28;20027;-82
2022/05/31 06:27:29;;;;;;;1.02;0.77;;;;;;;;;;4958345;28;20035;-81
2022/05/31 06:29:54;;;;;;;0.45;0.40;;;;;;;;;;4975406;28;20360;-82
2022/05/31 06:32:22;;;;;;;2.15;1.50;;;;;;;;;;4991485;28;20321;-81
2022/05/31 06:34:47;;;;;;;0.80;0.80;;;;;;;;;;4975603;28;20511;-82
2022/05/31 06:37:15;;;;;;;4.65;0.80;;;;;;;;;;4971452;28;20113;-82
2022/05/31 06:39:45;;;;;;;1.58;0.77;;;;;;;;;;4974119;28;20372;-81
2022/05/31 06:42:13;;;;;;;0.75;0.75;;;;;;;;;;4966843;28;20025;-81
2022/05/31 06:44:42;;;;;;;3.97;1.73;;;;;;;;;;4975192;28;20019;-82
2022/05/31 06:47:12;;;;;;;4.20;1.05;;;;;;;;;;4990842;28;20101;-83
2022/05/31 06:49:38;;;;;;;0.80;0.45;;;;;;;;;;4971782;28;20019;-81
2022/05/31 06:57:42;;;;;;;0.43;0.43;;;;;;;;;;4998279;28;20125;-82
2022/05/31 07:00:11;;;;;;;0.77;0.68;;;;;;;;;;5003763;28;20046;-82
2022/05/31 07:02:37;;;;;;;0.30;0.30;;;;;;;;;;4975636;28;20440;-81
2022/05/31 07:05:02;;;;;;;0.52;0.52;;;;;;;;;;4970972;28;20045;-81
2022/05/31 07:07:28;;;;;;;0.60;0.35;;;;;;;;;;4951897;28;20031;-82
2022/05/31 07:09:58;;;;;;;1.55;0.98;;;;;;;;;;4991918;28;20047;-81
2022/05/31 07:12:23;;;;;;;0.95;0.88;;;;;;;;;;4960077;28;20039;-81
2022/05/31 07:14:49;;;;;;;7.28;1.08;;;;;;;;;;4957848;28;20042;-82
2022/05/31 07:17:19;;;;;;;0.98;0.98;;;;;;;;;;4957038;28;20027;-81
2022/05/31 07:19:44;;;;;;;2.25;1.42;;;;;;;;;;4989922;28;20034;-80
2022/05/31 07:22:10;;;;;;;0.95;0.85;;;;;;;;;;4953558;28;20043;-81
2022/05/31 07:24:35;;;;;;;1.35;1.08;;;;;;;;;;4957500;28;20031;-82
2022/05/31 07:27:03;;;;;;;0.95;0.90;;;;;;;;;;4955510;28;20055;-82
2022/05/31 07:29:31;;;;;;;1.42;1.33;;;;;;;;;;4955628;28;20109;-81
2022/05/31 07:31:56;;;;;;;1.02;0.95;;;;;;;;;;4956593;28;20093;-82
2022/05/31 07:34:24;;;;;;;0.25;0.25;;;;;;;;;;4958547;28;20031;-80
2022/05/31 07:36:49;;;;;;;0.68;0.68;;;;;;;;;;4958534;28;20019;-81
2022/05/31 07:39:17;;;;;;;4.55;0.68;;;;;;;;;;4958677;28;20394;-81
2022/05/31 07:41:42;;;;;;;1.60;1.17;;;;;;;;;;4956304;28;20058;-80
2022/05/31 07:44:09;;;;;;;0.50;0.50;;;;;;;;;;4958896;28;20591;-80
2022/05/31 07:46:37;;;;;;;0.40;0.40;;;;;;;;;;4958316;28;20051;-80
2022/05/31 07:49:02;;;;;;;0.45;0.45;;;;;;;;;;4964074;28;20061;-80
2022/05/31 07:51:28;;;;;;;1.15;0.82;;;;;;;;;;4955705;28;20054;-80
2022/05/31 07:53:54;;;;;;;1.75;1.48;;;;;;;;;;4958948;28;20053;-80
2022/05/31 07:56:20;;;;;;;0.88;0.65;;;;;;;;;;4962699;28;20034;-81
2022/05/31 07:58:46;;;;;;;0.55;0.45;;;;;;;;;;4994285;28;20125;-81
2022/05/31 08:01:16;;;;;;;2.13;1.00;;;;;;;;;;4978477;28;20444;-81
2022/05/31 08:03:44;;;;;;;0.20;0.20;;;;;;;;;;4993814;28;20030;-81
2022/05/31 08:06:17;;;;;;;4.93;0.95;;;;;;;;;;4976857;28;20026;-81
2022/05/31 08:08:45;;;;;;;0.20;0.20;;;;;;;;;;4994578;28;20049;-81
2022/05/31 08:11:19;;;;;;;0.75;0.75;;;;;;;;;;4969751;28;20023;-81
2022/05/31 08:13:45;;;;;;;0.50;0.50;;;;;;;;;;4965849;28;20022;-81
2022/05/31 08:16:15;;;;;;;0.57;0.30;;;;;;;;;;4993337;28;20472;-81
2022/05/31 08:18:41;;;;;;;2.00;1.05;;;;;;;;;;4978246;28;20074;-82
2022/05/31 08:21:08;;;;;;;0.80;0.60;;;;;;;;;;4978072;28;20031;-83
2022/05/31 08:23:34;;;;;;;0.20;0.20;;;;;;;;;;4960921;28;20035;-83
2022/05/31 08:26:03;;;;;;;0.50;0.50;;;;;;;;;;4955187;28;20035;-83
2022/05/31 08:28:31;;;;;;;0.50;0.50;;;;;;;;;;4993803;28;20023;-86
2022/05/31 08:31:09;;;;;;;0.47;0.47;;;;;;;;;;4992895;28;20026;-84
2022/05/31 08:33:37;;;;;;;1.00;0.68;;;;;;;;;;4993471;28;20035;-84
2022/05/31 08:36:03;;;;;;;0.60;0.60;;;;;;;;;;4960032;28;20468;-83
2022/05/31 08:38:28;;;;;;;1.45;0.82;;;;;;;;;;4992711;28;20031;-83
2022/05/31 08:41:06;;;;;;;0.88;0.85;;;;;;;;;;4960891;28;20113;-84
2022/05/31 08:43:37;;;;;;;2.30;1.15;;;;;;;;;;4977761;28;20023;-83
2022/05/31 08:46:29;;;;;;;0.65;0.55;;;;;;;;;;4977914;28;20123;-81
2022/05/31 08:49:03;;;;;;;1.30;1.20;;;;;;;;;;4975899;28;20134;-82
2022/05/31 08:51:56;;;;;;;0.40;0.40;;;;;;;;;;4948101;28;20181;-82
2022/05/31 08:57:27;;;;;;;;;;;;;;;;;;4975360;28;20030;-82
2022/05/31 08:59:59;;;;;;;0.90;0.52;;;;;;;;;;4941918;28;19918;-85
2022/05/31 09:02:35;;;;;;;0.43;0.43;;;;;;;;;;4944379;28;20030;-84
2022/05/31 09:05:33;;;;;;;1.13;0.55;;;;;;;;;;4959177;28;20097;-83
2022/05/31 09:08:19;;;;;;;0.70;0.70;;;;;;;;;;4957179;28;20097;-84
2022/05/31 09:11:01;;;;;;;0.65;0.65;;;;;;;;;;4975068;28;20043;-82
2022/05/31 09:13:34;;;;;;;1.25;1.05;;;;;;;;;;4943106;28;20158;-83
2022/05/31 09:16:09;;;;;;;1.33;1.23;;;;;;;;;;4975616;28;20035;-83
2022/05/31 09:18:38;;;;;;;0.90;0.90;;;;;;;;;;4959481;28;20042;-82
2022/05/31 09:21:08;;;;;;;0.60;0.60;;;;;;;;;;4970230;28;20031;-82
2022/05/31 09:23:39;;;;;;;0.40;0.40;;;;;;;;;;4959136;28;20129;-83
2022/05/31 09:26:08;;;;;;;1.02;0.95;;;;;;;;;;4959981;28;20113;-80
2022/05/31 09:28:42;;;;;;;1.63;0.85;;;;;;;;;;4975205;28;20038;-79
2022/05/31 09:31:25;;;;;;;1.65;0.98;;;;;;;;;;4964631;28;20030;-82
2022/05/31 09:34:02;;;;;;;0.80;0.80;;;;;;;;;;4969865;28;20034;-82
2022/05/31 09:36:45;;;;;;;0.63;0.52;;;;;;;;;;4975267;28;20042;-81
2022/05/31 09:39:48;;;;;;;0.63;0.63;;;;;;;;;;4961547;28;20022;-85
2022/05/31 09:42:23;;;;;;;6.72;0.75;;;;;;;;;;4958385;28;20415;-83
2022/05/31 09:45:09;;;;;;;0.88;0.88;;;;;;;;;;4960427;28;20515;-83
2022/05/31 09:47:35;;;;;;;2.50;2.00;;;;;;;;;;4969442;28;20031;-84
2022/05/31 09:50:05;;;;;;;1.50;0.38;;;;;;;;;;4956015;28;20046;-83
2022/05/31 09:52:37;;;;;;;0.90;0.55;;;;;;;;;;4959816;28;20117;-82
2022/05/31 09:58:36;;;;;;;2.63;0.38;;;;;;;;;;4976070;28;20053;-82
2022/05/31 10:01:12;;;;;;;0.30;0.30;;;;;;;;;;4969603;28;20027;-76
2022/05/31 10:03:46;;;;;;;0.40;0.40;;;;;;;;;;4977389;28;20102;-76
2022/05/31 10:06:16;;;;;;;1.00;0.85;;;;;;;;;;4972845;28;20023;-76
2022/05/31 10:08:42;;;;;;;0.40;0.40;;;;;;;;;;4974903;28;20086;-76
2022/05/31 10:11:23;;;;;;;0.70;0.68;;;;;;;;;;4975576;28;20034;-77
2022/05/31 10:14:02;;;;;;;0.47;0.40;;;;;;;;;;4975773;28;20057;-75
2022/05/31 10:16:35;;;;;;;0.55;0.45;;;;;;;;;;4992368;28;20079;-76
2022/05/31 10:19:04;;;;;;;0.60;0.60;;;;;;;;;;4976801;28;20356;-76
2022/05/31 10:21:40;;;;;;;2.50;0.65;;;;;;;;;;4991652;28;20022;-76
2022/05/31 10:24:31;;;;;;;1.08;0.70;;;;;;;;;;4975526;28;20325;-76
2022/05/31 10:27:18;;;;;;;0.65;0.65;;;;;;;;;;4972171;28;20094;-77
2022/05/31 10:29:52;;;;;;;0.60;0.57;;;;;;;;;;4979798;28;20038;-76
2022/05/31 10:32:34;;;;;;;0.22;0.22;;;;;;;;;;4979592;28;20540;-76
2022/05/31 10:35:17;;;;;;;0.73;0.53;;;;;;;;;;4974991;28;20045;-77
2022/05/31 10:38:17;;;;;;;0.30;0.30;;;;;;;;;;4980146;28;20686;-75
2022/05/31 10:40:59;;;;;;;0.75;0.40;;;;;;;;;;4974547;28;20102;-76
2022/05/31 10:43:35;;;;;;;0.93;0.75;;;;;;;;;;4981964;28;20388;-77
2022/05/31 10:46:30;;;;;;;0.22;0.22;;;;;;;;;;4979178;28;20026;-76
2022/05/31 10:48:59;;;;;;;0.45;0.45;;;;;;;;;;4977720;28;20085;-78
2022/05/31 10:51:39;;;;;;;0.40;0.40;;;;;;;;;;4977470;28;20049;-78
2022/05/31 10:54:22;;;;;;;1.05;0.95;;;;;;;;;;4978721;28;20034;-75
2022/05/31 10:57:02;;;;;;;0.60;0.50;;;;;;;;;;4976698;28;20031;-75
2022/05/31 10:59:46;;;;;;;2.78;0.75;;;;;;;;;;4975482;28;20042;-77
2022/05/31 11:02:33;;;;;;;1.27;0.65;;;;;;;;;;4974696;28;20023;-77
2022/05/31 11:05:10;;;;;;;0.10;0.10;;;;;;;;;;4974221;28;20090;-77
2022/05/31 11:13:48;;;;;;;0.75;0.20;;;;;;;;;;4969022;28;20046;-76
2022/05/31 11:16:34;;;;;;;0.60;0.30;;;;;;;;;;4972051;28;20042;-80
2022/05/31 11:19:16;;;;;;;0.20;0.15;;;;;;;;;;4970769;28;20046;-80
2022/05/31 11:22:02;;;;;;;0.32;0.28;;;;;;;;;;4972619;28;20026;-79
2022/05/31 11:24:46;;;;;;;1.38;0.75;;;;;;;;;;5004239;28;20105;-79
2022/05/31 11:27:14;;;;;;;0.52;0.30;;;;;;;;;;4971695;28;20054;-80
2022/05/31 11:30:02;;;;;;;3.22;1.23;;;;;;;;;;4975952;28;20058;-80
2022/05/31 11:33:07;;;;;;;0.15;0.15;;;;;;;;;;4967107;28;20419;-80
2022/05/31 11:35:44;;;;;;;1.52;0.80;;;;;;;;;;4972389;28;20456;-80
2022/05/31 11:38:22;;;;;;;1.33;0.63;;;;;;;;;;4973354;28;20030;-80
2022/05/31 11:41:10;;;;;;;0.50;0.40;;;;;;;;;;4950337;28;20053;-79
2022/05/31 11:44:00;;;;;;;0.40;0.35;;;;;;;;;;4955947;28;20059;-79
2022/05/31 11:46:38;;;;;;;0.65;0.38;;;;;;;;;;4971981;28;20081;-79
2022/05/31 11:49:11;;;;;;;0.77;0.40;;;;;;;;;;4976139;28;20321;-79
2022/05/31 11:51:58;;;;;;;1.17;1.05;;;;;;;;;;4973737;28;20105;-78
2022/05/31 11:55:25;;;;;;;0.52;0.20;;;;;;;;;;4974307;28;20037;-79
2022/05/31 11:57:59;;;;;;;0.10;0.10;;;;;;;;;;4994302;28;20185;-82
2022/05/31 12:00:28;;;;;;;0.30;0.30;;;;;;;;;;4969729;28;20444;-83
2022/05/31 12:02:59;;;;;;;1.20;0.60;;;;;;;;;;4974366;28;20042;-82
2022/05/31 12:05:36;;;;;;;0.35;0.35;;;;;;;;;;5005481;28;20340;-78
2022/05/31 12:08:15;;;;;;;7.55;0.52;;;;;;;;;;4976919;28;20417;-78
2022/05/31 12:10:50;;;;;;;1.55;1.00;;;;;;;;;;4974302;28;20058;-79
2022/05/31 12:13:16;;;;;;;0.73;0.73;;;;;;;;;;4973734;28;20122;-79
2022/05/31 12:15:43;;;;;;;1.48;0.60;;;;;;;;;;4972817;28;20030;-79
2022/05/31 12:18:29;;;;;;;0.52;0.52;;;;;;;;;;4976868;28;20037;-78
2022/05/31 12:21:14;;;;;;;1.65;0.73;;;;;;;;;;4956602;28;20034;-78
2022/05/31 12:23:48;;;;;;;0.03;0.03;;;;;;;;;;4972271;28;20113;-79
2022/05/31 12:26:29;;;;;;;0.95;0.55;;;;;;;;;;4953993;28;20031;-80
2022/05/31 12:29:11;;;;;;;0.73;0.70;;;;;;;;;;4986580;28;20053;-80
2022/05/31 12:31:38;;;;;;;0.30;0.30;;;;;;;;;;4971029;28;20034;-81
2022/05/31 12:34:33;;;;;;;0.60;0.45;;;;;;;;;;4987137;28;20022;-80
2022/05/31 12:36:58;;;;;;;0.63;0.30;;;;;;;;;;4964726;28;20038;-77
2022/05/31 12:39:30;;;;;;;0.10;0.10;;;;;;;;;;4974519;28;20133;-77
2022/05/31 12:41:55;;;;;;;1.35;0.43;;;;;;;;;;4979575;28;20027;-78
2022/05/31 12:44:35;;;;;;;0.43;0.43;;;;;;;;;;4960711;28;20495;-78
2022/05/31 12:47:26;;;;;;;0.28;0.28;;;;;;;;;;4985157;28;20031;-78
2022/05/31 12:50:20;;;;;;;0.50;0.50;;;;;;;;;;4978905;28;20027;-77
2022/05/31 12:53:20;;;;;;;0.80;0.20;;;;;;;;;;4957620;28;20114;-77
2022/05/31 12:55:46;;;;;;;0.88;0.20;;;;;;;;;;5004069;28;20035;-77
2022/05/31 12:58:28;;;;;;;0.73;0.35;;;;;;;;;;4975993;28;20027;-78
2022/05/31 13:00:57;;;;;;;0.20;0.20;;;;;;;;;;4977034;28;20468;-77
2022/05/31 13:03:34;;;;;;;1.00;0.40;;;;;;;;;;4980758;28;20034;-77
2022/05/31 13:06:03;;;;;;;0.65;0.43;;;;;;;;;;4977069;28;20027;-77
2022/05/31 13:08:52;;;;;;;0.32;0.20;;;;;;;;;;4977847;28;20080;-77
2022/05/31 13:19:39;;;;;;;0.88;0.88;;;;;;;;;;4977464;28;20045;-77
2022/05/31 13:22:11;;;;;;;0.20;0.20;;;;;;;;;;4976837;28;20022;-77
2022/05/31 13:24:44;;;;;;;0.45;0.45;;;;;;;;;;4986494;28;20023;-77
2022/05/31 13:27:10;;;;;;;0.52;0.30;;;;;;;;;;5008938;28;20081;-77
2022/05/31 13:29:35;;;;;;;1.05;0.77;;;;;;;;;;4977196;28;20364;-77
2022/05/31 13:32:01;;;;;;;0.50;0.50;;;;;;;;;;4971678;28;20031;-77
2022/05/31 13:34:28;;;;;;;0.43;0.38;;;;;;;;;;4976832;28;20026;-77
2022/05/31 13:36:53;;;;;;;1.88;0.82;;;;;;;;;;4976035;28;20039;-78
2022/05/31 13:39:19;;;;;;;0.08;0.08;;;;;;;;;;4959964;28;20428;-77
2022/05/31 13:41:53;;;;;;;1.75;0.70;;;;;;;;;;4984987;28;20044;-77
2022/05/31 13:44:26;;;;;;;0.50;0.50;;;;;;;;;;4971586;28;20352;-77
2022/05/31 13:46:51;;;;;;;;;;;;;;;;;;4976576;28;20026;-77
2022/05/31 13:49:17;;;;;;;0.20;0.20;;;;;;;;;;4976007;28;20365;-77
2022/05/31 13:51:49;;;;;;;0.10;0.10;;;;;;;;;;4973176;28;20506;-79
2022/05/31 13:54:17;;;;;;;0.43;0.43;;;;;;;;;;4971961;28;20078;-77
2022/05/31 13:56:48;;;;;;;0.30;0.30;;;;;;;;;;4972047;28;20038;-78
2022/05/31 13:59:13;;;;;;;0.32;0.32;;;;;;;;;;4974431;28;20042;-77
2022/05/31 14:01:40;;;;;;;0.20;0.20;;;;;;;;;;4975395;28;20400;-78
2022/05/31 14:04:19;;;;;;;0.90;0.40;;;;;;;;;;5000258;28;20081;-78
2022/05/31 14:06:46;;;;;;;1.38;0.50;;;;;;;;;;4974503;28;20088;-78
2022/05/31 14:09:22;;;;;;;0.85;0.40;;;;;;;;;;4955164;28;20057;-78
2022/05/31 14:12:00;;;;;;;0.20;0.20;;;;;;;;;;4943321;28;20547;-78
2022/05/31 14:14:30;;;;;;;0.28;0.28;;;;;;;;;;4974639;28;20027;-77
2022/05/31 14:16:57;;;;;;;0.65;0.52;;;;;;;;;;4975696;28;20027;-78
2022/05/31 14:19:26;;;;;;;0.68;0.68;;;;;;;;;;4993004;28;20041;-79
2022/05/31 14:21:54;;;;;;;0.10;0.10;;;;;;;;;;4973720;28;20019;-78
2022/05/31 14:24:23;;;;;;;0.38;0.38;;;;;;;;;;4993550;28;20468;-78
2022/05/31 14:26:51;;;;;;;0.25;0.20;;;;;;;;;;4976849;28;20030;-78
2022/05/31 14:29:23;;;;;;;0.40;0.40;;;;;;;;;;4974970;28;20089;-78
2022/05/31 14:32:12;;;;;;;0.52;0.38;;;;;;;;;;4975854;28;20479;-78
2022/05/31 14:34:40;;;;;;;0.10;0.10;;;;;;;;;;4975072;28;20042;-77
2022/05/31 14:37:08;;;;;;;0.20;0.20;;;;;;;;;;4972583;28;20378;-78
2022/05/31 14:39:45;;;;;;;1.05;0.88;;;;;;;;;;4975169;28;20060;-78
2022/05/31 14:42:19;;;;;;;0.40;0.40;;;;;;;;;;4975036;28;20097;-78
2022/05/31 14:44:53;;;;;;;0.20;0.13;;;;;;;;;;4985310;28;20035;-77
2022/05/31 14:47:22;;;;;;;0.22;0.22;;;;;;;;;;4956152;28;20050;-77
2022/05/31 14:49:49;;;;;;;0.20;0.20;;;;;;;;;;4972754;28;20046;-77
2022/05/31 14:52:24;;;;;;;2.97;1.02;;;;;;;;;;4974278;28;20023;-77
2022/05/31 14:54:51;;;;;;;0.47;0.30;;;;;;;;;;4973193;28;20069;-78
2022/05/31 14:58:37;;;;;;;0.52;0.52;;;;;;;;;;4974362;28;20452;-78
2022/05/31 15:00:18;;;;;;;0.10;0.10;;;;;;;;;;4974487;28;20420;-77
2022/05/31 15:02:47;;;;;;;1.17;0.52;;;;;;;;;;4955982;28;20042;-78
2022/05/31 15:05:23;;;;;;;0.70;0.28;;;;;;;;;;4973338;28;20041;-78
2022/05/31 15:07:57;;;;;;;1.67;0.47;;;;;;;;;;4974063;28;20030;-79
2022/05/31 15:10:30;;;;;;;0.35;0.35;;;;;;;;;;4973482;28;20448;-78
2022/05/31 15:21:17;;;;;;;0.10;0.10;;;;;;;;;;4972300;28;20538;-77
2022/05/31 15:23:45;;;;;;;0.22;0.22;;;;;;;;;;4972948;28;20073;-77
2022/05/31 15:26:15;;;;;;;1.10;0.47;;;;;;;;;;4974437;28;20035;-77
2022/05/31 15:28:43;;;;;;;0.95;0.68;;;;;;;;;;4972412;28;20522;-77
2022/05/31 15:31:29;;;;;;;0.65;0.65;;;;;;;;;;4972723;28;20037;-78
2022/05/31 15:33:55;;;;;;;0.47;0.30;;;;;;;;;;4971192;28;20026;-76
2022/05/31 15:36:23;;;;;;;0.30;0.22;;;;;;;;;;4975136;28;20026;-75
2022/05/31 15:38:48;;;;;;;1.50;0.40;;;;;;;;;;4971478;28;20133;-76
2022/05/31 15:41:14;;;;;;;0.10;0.10;;;;;;;;;;4954896;28;20173;-76
2022/05/31 15:43:55;;;;;;;0.30;0.30;;;;;;;;;;4974337;28;20041;-76
2022/05/31 15:46:27;;;;;;;1.05;0.85;;;;;;;;;;4972574;28;20042;-76
2022/05/31 15:48:53;;;;;;;;;;;;;;;;;;4974381;28;20033;-76
2022/05/31 15:51:23;;;;;;;0.10;0.10;;;;;;;;;;4973828;28;19922;-76
2022/05/31 15:53:49;;;;;;;0.47;0.10;;;;;;;;;;4972883;28;20054;-76